Time;durP1;ratioP1;P1;durP2;ratioP2;P2;SDS_P1;SDS_P2;PMS_P1;PMS_P2;Temp;Humidity;BMP_temperature;BMP_pressure;BME280_temperature;BME280_humidity;BME280_pressure;Samples;Min_cycle;Max_cycle;Signal;HPM_P1;HPM_P2
2021/12/05 00:23:19;;;;;;;3.38;1.25;;;;;;;2.59;84.36;100403.47;4951478;28;20059;-89
2021/12/05 00:25:50;;;;;;;4.72;1.45;;;;;;;2.60;84.41;100394.13;4951329;28;20039;-88
2021/12/05 00:47:00;;;;;;;5.82;1.08;;;;;;;2.67;84.47;100425.44;4950757;28;20045;-85
2021/12/05 01:08:47;;;;;;;6.53;1.42;;;;;;;2.61;84.61;100448.50;4950181;28;20047;-85
2021/12/05 01:16:26;;;;;;;11.65;1.58;;;;;;;2.55;84.41;100457.88;4950070;28;19926;-85
2021/12/05 01:18:53;;;;;;;5.68;1.42;;;;;;;2.55;84.27;100473.47;4933315;28;20055;-85
2021/12/05 01:21:24;;;;;;;7.20;1.70;;;;;;;2.54;84.46;100475.41;4951684;28;20050;-85
2021/12/05 01:24:10;;;;;;;5.72;1.48;;;;;;;2.51;84.13;100467.81;4951607;28;20039;-84
2021/12/05 01:27:42;;;;;;;7.45;1.85;;;;;;;2.51;84.28;100469.72;4949980;28;20106;-85
2021/12/05 01:29:46;;;;;;;4.43;1.40;;;;;;;2.46;84.49;100465.16;4957909;28;20131;-85
2021/12/05 01:38:02;;;;;;;9.95;1.73;;;;;;;2.45;84.88;100478.00;4896570;28;20092;-85
2021/12/05 01:56:14;;;;;;;2.05;0.90;;;;;;;2.51;85.37;100484.19;4949502;28;20104;-85
2021/12/05 02:32:34;;;;;;;4.22;0.90;;;;;;;2.51;85.31;100533.38;4953962;28;20861;-85
2021/12/05 02:39:44;;;;;;;4.68;1.60;;;;;;;2.47;85.30;100551.47;4953772;28;20043;-85
2021/12/05 02:42:15;;;;;;;5.43;1.63;;;;;;;2.47;84.92;100557.75;4953337;28;20075;-84
2021/12/05 02:44:43;;;;;;;4.28;1.35;;;;;;;2.46;85.18;100555.31;4955325;28;20039;-85
2021/12/05 02:47:15;;;;;;;5.82;1.70;;;;;;;2.45;85.37;100565.44;4952902;28;20078;-85
2021/12/05 02:49:46;;;;;;;3.63;1.50;;;;;;;2.46;84.91;100560.78;4952395;28;20143;-85
2021/12/05 02:52:29;;;;;;;6.18;1.25;;;;;;;2.45;85.05;100564.63;4952853;28;20060;-85
2021/12/05 02:55:16;;;;;;;5.85;1.05;;;;;;;2.46;85.26;100574.44;4952700;28;20050;-86
2021/12/05 02:57:52;;;;;;;8.00;1.45;;;;;;;2.45;84.97;100573.63;4953059;28;20078;-85
2021/12/05 03:00:36;;;;;;;2.28;1.42;;;;;;;2.45;84.89;100576.34;4952480;28;20125;-85
2021/12/05 03:03:16;;;;;;;9.60;1.58;;;;;;;2.44;85.08;100579.38;4952893;28;20062;-85
2021/12/05 03:05:46;;;;;;;5.30;1.10;;;;;;;2.43;85.15;100583.22;4955279;28;20403;-84
2021/12/05 03:08:13;;;;;;;4.55;0.82;;;;;;;2.45;85.50;100581.00;4936072;28;20044;-84
2021/12/05 03:10:40;;;;;;;7.05;0.93;;;;;;;2.44;85.25;100582.91;4951161;28;20055;-85
2021/12/05 03:13:07;;;;;;;4.25;0.88;;;;;;;2.46;85.23;100588.91;4948634;28;20057;-86
2021/12/05 03:15:35;;;;;;;6.88;1.00;;;;;;;2.46;85.24;100588.09;4951788;28;20049;-86
2021/12/05 03:18:02;;;;;;;4.10;1.70;;;;;;;2.46;85.61;100596.31;4952173;28;20066;-84
2021/12/05 03:20:30;;;;;;;3.38;1.00;;;;;;;2.47;85.50;100584.25;4953264;28;20840;-84
2021/12/05 03:22:57;;;;;;;4.22;0.77;;;;;;;2.52;85.34;100600.56;4952460;28;20098;-86
2021/12/05 03:25:25;;;;;;;4.40;0.73;;;;;;;2.57;85.84;100592.28;4952949;28;20087;-86
2021/12/05 03:27:52;;;;;;;2.65;0.75;;;;;;;2.61;85.59;100593.34;4951108;28;20043;-84
2021/12/05 03:30:22;;;;;;;2.50;0.50;;;;;;;2.65;85.30;100594.34;4964136;28;20078;-86
2021/12/05 03:32:50;;;;;;;4.68;0.70;;;;;;;2.67;85.72;100589.44;4969118;28;20632;-86
2021/12/05 03:35:20;;;;;;;7.15;1.83;;;;;;;2.69;85.30;100584.47;4951447;28;20035;-85
2021/12/05 03:37:48;;;;;;;9.63;1.38;;;;;;;2.70;85.37;100572.41;4951290;28;20035;-86
2021/12/05 03:40:17;;;;;;;6.72;1.38;;;;;;;2.71;85.11;100581.44;4935952;28;20146;-85
2021/12/05 03:42:45;;;;;;;8.23;1.48;;;;;;;2.71;84.95;100584.97;4953100;28;20586;-84
2021/12/05 03:45:17;;;;;;;5.45;0.73;;;;;;;2.69;85.18;100589.94;4952288;28;20126;-86
2021/12/05 03:47:45;;;;;;;3.03;0.95;;;;;;;2.71;85.57;100595.91;4951644;28;20046;-86
2021/12/05 03:50:13;;;;;;;3.92;0.73;;;;;;;2.72;85.35;100599.47;4953340;28;20043;-85
2021/12/05 03:52:41;;;;;;;4.03;1.45;;;;;;;2.72;85.60;100608.47;4952083;28;20039;-85
2021/12/05 03:55:11;;;;;;;1.77;0.95;;;;;;;2.71;85.33;100604.13;4950608;28;20102;-85
2021/12/05 03:57:38;;;;;;;4.90;1.13;;;;;;;2.72;85.15;100615.88;4950887;28;20071;-85
2021/12/05 04:00:12;;;;;;;3.65;1.50;;;;;;;2.70;85.27;100616.16;4951209;28;20059;-85
2021/12/05 04:02:39;;;;;;;3.15;0.95;;;;;;;2.72;85.45;100624.06;4950634;28;20492;-84
2021/12/05 04:05:07;;;;;;;7.30;0.63;;;;;;;2.69;85.07;100625.47;4953899;28;20401;-85
2021/12/05 04:07:35;;;;;;;6.53;1.60;;;;;;;2.68;85.33;100623.03;4951257;28;20079;-85
2021/12/05 04:10:03;;;;;;;7.28;1.15;;;;;;;2.65;85.48;100627.16;4951747;28;20074;-85
2021/12/05 04:12:29;;;;;;;3.15;1.00;;;;;;;2.64;85.33;100633.75;4951132;28;20050;-85
2021/12/05 04:14:56;;;;;;;7.03;1.23;;;;;;;2.65;85.71;100640.03;4949256;28;20134;-85
2021/12/05 04:17:23;;;;;;;4.35;1.33;;;;;;;2.62;85.47;100635.16;4952202;28;20126;-85
2021/12/05 04:19:51;;;;;;;10.30;2.45;;;;;;;2.61;85.70;100637.06;4960461;28;20054;-85
2021/12/05 04:22:18;;;;;;;3.90;1.10;;;;;;;2.61;86.03;100642.53;4950649;28;20385;-86
2021/12/05 04:24:46;;;;;;;1.85;0.73;;;;;;;2.61;85.72;100648.00;4950802;28;20121;-86
2021/12/05 04:27:14;;;;;;;8.52;1.08;;;;;;;2.62;85.55;100651.56;4935440;28;20190;-84
2021/12/05 04:29:41;;;;;;;9.10;2.20;;;;;;;2.62;86.03;100638.66;4950123;28;20038;-85
2021/12/05 04:32:08;;;;;;;4.75;0.90;;;;;;;2.63;85.94;100648.50;4951785;28;20055;-85
2021/12/05 04:34:35;;;;;;;3.40;0.98;;;;;;;2.65;85.87;100646.28;4950382;28;20085;-86
2021/12/05 04:37:02;;;;;;;5.18;1.42;;;;;;;2.65;86.33;100654.50;4949985;28;20059;-85
2021/12/05 04:39:31;;;;;;;2.85;1.67;;;;;;;2.66;85.67;100668.97;4952118;28;20101;-86
2021/12/05 04:41:59;;;;;;;5.50;0.98;;;;;;;2.66;86.02;100669.78;4947703;28;20039;-85
2021/12/05 04:44:26;;;;;;;8.30;0.70;;;;;;;2.66;85.99;100669.78;4950990;28;20059;-86
2021/12/05 04:46:53;;;;;;;6.00;0.73;;;;;;;2.67;85.67;100676.91;4959428;28;20039;-86
2021/12/05 04:49:20;;;;;;;7.38;2.03;;;;;;;2.68;85.59;100688.63;4934479;28;20110;-87
2021/12/05 04:51:47;;;;;;;13.55;0.90;;;;;;;2.70;85.61;100687.22;4950712;28;20047;-86
2021/12/05 04:54:17;;;;;;;6.03;1.08;;;;;;;2.72;85.97;100690.50;4951139;28;20078;-86
2021/12/05 04:56:48;;;;;;;4.22;1.58;;;;;;;2.73;85.62;100697.56;4948841;28;20055;-86
2021/12/05 04:59:17;;;;;;;5.78;1.58;;;;;;;2.75;85.94;100705.50;4949370;28;20053;-86
2021/12/05 05:01:48;;;;;;;3.47;0.60;;;;;;;2.77;86.19;100709.56;4950982;28;20059;-86
2021/12/05 05:04:25;;;;;;;8.40;1.20;;;;;;;2.80;85.68;100708.97;4966431;28;20255;-86
2021/12/05 05:06:56;;;;;;;2.70;1.02;;;;;;;2.82;86.02;100716.84;4934145;28;20047;-87
2021/12/05 05:09:25;;;;;;;5.40;1.17;;;;;;;2.82;85.57;100716.84;4951424;28;20035;-87
2021/12/05 05:11:51;;;;;;;7.40;1.02;;;;;;;2.81;85.68;100718.78;4951332;28;20070;-85
2021/12/05 05:14:18;;;;;;;3.85;0.60;;;;;;;2.82;85.59;100731.34;4932420;29;20043;-87
2021/12/05 05:16:47;;;;;;;5.75;1.95;;;;;;;2.80;85.57;100730.03;4933083;28;20142;-85
2021/12/05 05:19:17;;;;;;;7.53;1.00;;;;;;;2.77;85.63;100734.16;4966016;28;20043;-86
2021/12/05 05:22:16;;;;;;;2.38;0.60;;;;;;;2.76;85.64;100746.19;4950628;28;20043;-87
2021/12/05 05:46:15;;;;;;;2.83;0.63;;;;;;;2.70;85.94;100758.28;4950455;28;20307;-86
2021/12/05 05:48:58;;;;;;;4.75;1.20;;;;;;;2.69;85.76;100756.66;4949764;28;20057;-86
2021/12/05 05:51:25;;;;;;;3.38;0.70;;;;;;;2.68;85.83;100760.50;4949401;28;20435;-86
2021/12/05 05:53:52;;;;;;;2.95;0.68;;;;;;;2.68;85.83;100756.94;4950639;28;20594;-86
2021/12/05 05:56:22;;;;;;;6.38;1.02;;;;;;;2.66;86.04;100756.44;4932401;28;20142;-87
2021/12/05 05:58:55;;;;;;;4.85;1.02;;;;;;;2.65;86.37;100761.09;4931434;28;20042;-87
2021/12/05 06:01:43;;;;;;;;;;;;;;;2.63;86.78;100767.94;4948693;28;20063;-88
2021/12/05 06:04:09;;;;;;;7.32;0.93;;;;;;;2.61;86.22;100776.44;4949276;28;19933;-87
2021/12/05 06:06:36;;;;;;;1.10;0.43;;;;;;;2.61;86.26;100770.97;4933265;28;20046;-87
2021/12/05 06:09:03;;;;;;;4.97;1.45;;;;;;;2.60;86.32;100763.88;4962118;28;20541;-87
2021/12/05 06:11:30;;;;;;;2.80;0.75;;;;;;;2.60;86.12;100758.41;4949728;28;20043;-87
2021/12/05 06:13:57;;;;;;;5.18;1.08;;;;;;;2.59;86.40;100759.53;4936169;28;20125;-87
2021/12/05 06:16:24;;;;;;;1.60;0.45;;;;;;;2.60;85.96;100763.88;4950182;28;20475;-86
2021/12/05 06:18:52;;;;;;;2.05;0.73;;;;;;;2.58;86.11;100771.56;4948842;28;20039;-87
2021/12/05 06:21:19;;;;;;;0.98;0.43;;;;;;;2.59;86.33;100781.41;4949090;28;20604;-87
2021/12/05 06:23:46;;;;;;;1.88;0.40;;;;;;;2.59;86.51;100781.41;4948193;28;20047;-87
2021/12/05 06:26:19;;;;;;;3.20;0.63;;;;;;;2.61;86.03;100783.81;4949651;28;20039;-88
2021/12/05 06:29:16;;;;;;;2.90;1.10;;;;;;;2.60;86.03;100791.22;4949719;28;20046;-86
2021/12/05 06:37:14;;;;;;;6.53;1.33;;;;;;;2.62;86.25;100799.91;4949349;28;20043;-87
2021/12/05 06:43:00;;;;;;;2.22;0.50;;;;;;;2.60;85.93;100813.06;4938979;28;20483;-88
2021/12/05 06:48:12;;;;;;;3.70;0.65;;;;;;;2.58;86.13;100831.69;4934395;28;20147;-87
2021/12/05 06:50:38;;;;;;;3.10;0.57;;;;;;;2.56;86.26;100835.81;4948533;28;20043;-88
2021/12/05 06:53:07;;;;;;;2.75;0.70;;;;;;;2.55;86.40;100837.72;4949672;28;20102;-86
2021/12/05 06:55:34;;;;;;;5.60;0.77;;;;;;;2.57;85.97;100846.44;4945380;28;20122;-87
2021/12/05 06:58:04;;;;;;;5.65;1.30;;;;;;;2.57;86.01;100860.09;4950017;28;20054;-88
2021/12/05 07:00:31;;;;;;;4.47;1.17;;;;;;;2.57;86.42;100856.59;4948318;28;20090;-87
2021/12/05 07:02:59;;;;;;;4.95;0.80;;;;;;;2.56;86.03;100863.16;4948307;28;20609;-87
2021/12/05 07:07:53;;;;;;;10.15;1.10;;;;;;;2.58;86.35;100867.22;4950652;28;20098;-86
2021/12/05 07:10:21;;;;;;;3.15;0.95;;;;;;;2.58;86.46;100869.94;4950902;28;20049;-87
2021/12/05 07:13:32;;;;;;;4.75;0.77;;;;;;;2.58;86.23;100869.13;4952232;28;20456;-87
2021/12/05 07:15:50;;;;;;;3.38;1.63;;;;;;;2.54;86.20;100877.09;4950326;28;20053;-87
2021/12/05 07:23:47;;;;;;;4.45;0.77;;;;;;;2.49;86.22;100890.00;4963546;28;20039;-87
2021/12/05 07:26:23;;;;;;;2.17;1.00;;;;;;;2.44;85.85;100893.56;4951710;28;20043;-87
2021/12/05 07:42:41;;;;;;;5.18;1.17;;;;;;;2.30;86.24;100917.22;4953671;28;20119;-88
2021/12/05 07:45:16;;;;;;;3.42;0.80;;;;;;;2.26;86.27;100927.06;4952200;28;20043;-87
2021/12/05 07:47:46;;;;;;;6.60;0.80;;;;;;;2.25;86.49;100914.53;4967946;28;20047;-86
2021/12/05 07:50:14;;;;;;;8.68;1.00;;;;;;;2.24;86.17;100923.81;4949883;28;20045;-88
2021/12/05 07:52:45;;;;;;;3.83;1.00;;;;;;;2.22;85.92;100928.75;4955431;28;20563;-88
2021/12/05 07:55:25;;;;;;;3.25;1.10;;;;;;;2.18;86.30;100924.94;4959870;28;20554;-87
2021/12/05 07:58:22;;;;;;;3.13;0.73;;;;;;;2.14;85.94;100935.66;4967531;28;20055;-88
2021/12/05 08:00:58;;;;;;;5.95;1.60;;;;;;;2.13;86.19;100931.28;4951534;28;20055;-88
2021/12/05 08:16:57;;;;;;;12.57;2.28;;;;;;;1.99;86.92;100946.66;4938287;28;20057;-86
2021/12/05 08:19:24;;;;;;;4.45;1.00;;;;;;;1.97;86.74;100950.78;4951937;28;20054;-89
2021/12/05 08:21:57;;;;;;;5.07;0.85;;;;;;;1.96;86.74;100949.16;4918641;28;20058;-87
2021/12/05 08:24:24;;;;;;;;;;;;;;;1.93;87.17;100955.19;4935511;28;20133;-88
2021/12/05 08:26:52;;;;;;;4.60;1.52;;;;;;;1.92;86.83;100959.00;4958387;28;20619;-87
2021/12/05 08:29:35;;;;;;;2.97;1.23;;;;;;;1.89;87.13;100954.91;4956778;28;20101;-91
2021/12/05 08:32:37;;;;;;;4.25;1.25;;;;;;;1.89;86.89;100954.91;4944205;28;20078;-88
2021/12/05 08:42:22;;;;;;;4.30;1.23;;;;;;;1.80;87.46;100957.44;4922296;29;20059;-91
2021/12/05 08:45:25;;;;;;;2.65;0.90;;;;;;;1.82;87.70;100960.72;4953904;28;20049;-90
2021/12/05 09:25:35;;;;;;;4.40;1.55;;;;;;;2.08;87.81;101046.00;4951688;28;20043;-90
2021/12/05 09:30:51;;;;;;;4.18;0.95;;;;;;;2.17;87.65;101063.41;4950721;28;20063;-89
2021/12/05 09:39:30;;;;;;;6.57;2.65;;;;;;;2.29;87.65;101074.03;4949626;28;20503;-89
2021/12/05 10:02:21;;;;;;;8.38;2.00;;;;;;;2.51;87.22;101093.56;4952054;28;20066;-90
2021/12/05 10:16:09;;;;;;;6.63;2.13;;;;;;;2.58;87.35;101126.84;4950782;28;20043;-88
2021/12/05 10:37:54;;;;;;;6.80;1.20;;;;;;;3.11;87.45;101135.22;4954865;28;20760;-93
2021/12/05 10:40:53;;;;;;;4.75;1.17;;;;;;;3.17;87.32;101142.28;4951401;28;20043;-89
2021/12/05 10:43:31;;;;;;;6.15;1.27;;;;;;;3.25;87.51;101133.47;4951124;28;20074;-92
2021/12/05 10:46:09;;;;;;;4.00;1.35;;;;;;;3.31;87.34;101146.00;4952312;28;20059;-92
2021/12/05 10:49:02;;;;;;;6.90;1.92;;;;;;;3.36;87.46;101137.75;4951829;28;20138;-91
2021/12/05 10:51:55;;;;;;;6.20;1.80;;;;;;;3.41;87.55;101145.91;4954294;28;20054;-90
2021/12/05 10:54:29;;;;;;;10.48;2.75;;;;;;;3.49;86.94;101148.03;4954413;28;20035;-89
2021/12/05 10:57:05;;;;;;;11.07;2.15;;;;;;;3.56;86.78;101153.97;4930095;28;20066;-91
2021/12/05 10:59:46;;;;;;;10.10;1.65;;;;;;;3.62;86.81;101150.09;4936676;28;20070;-92
2021/12/05 11:02:26;;;;;;;4.38;1.60;;;;;;;3.67;86.79;101150.03;4952558;28;20134;-91
2021/12/05 11:05:09;;;;;;;6.15;1.65;;;;;;;3.71;86.95;101142.84;4954366;28;20514;-92
2021/12/05 11:07:42;;;;;;;11.25;1.75;;;;;;;3.76;86.94;101147.47;4953899;28;20039;-92
2021/12/05 11:10:13;;;;;;;6.35;1.25;;;;;;;3.80;86.59;101152.06;4954075;28;20043;-91
2021/12/05 11:12:58;;;;;;;4.40;1.90;;;;;;;3.84;86.37;101144.09;4969146;28;20098;-89
2021/12/05 11:15:42;;;;;;;5.05;2.08;;;;;;;3.93;86.29;101158.78;4957760;28;20463;-88
2021/12/05 11:18:43;;;;;;;5.72;1.50;;;;;;;3.97;86.05;101160.63;4960782;28;20057;-91
2021/12/05 11:21:35;;;;;;;13.77;2.30;;;;;;;4.00;86.50;101159.25;4952961;28;20047;-92
2021/12/05 11:24:07;;;;;;;4.00;1.58;;;;;;;4.03;86.40;101164.97;4948498;28;20137;-90
2021/12/05 11:26:34;;;;;;;6.25;1.77;;;;;;;4.07;86.35;101166.03;4951919;28;20043;-90
2021/12/05 11:29:01;;;;;;;4.28;1.17;;;;;;;4.11;86.52;101164.31;4951513;28;20062;-91
2021/12/05 11:31:31;;;;;;;7.80;2.03;;;;;;;4.18;86.55;101175.72;4967862;28;20031;-92
2021/12/05 11:33:59;;;;;;;6.47;2.10;;;;;;;4.21;86.13;101161.44;4936325;28;20039;-91
2021/12/05 11:36:45;;;;;;;9.00;2.80;;;;;;;4.29;85.98;101168.22;4963400;28;20050;-91
2021/12/05 11:39:26;;;;;;;5.07;2.15;;;;;;;4.34;85.70;101170.91;4938398;28;20535;-91
2021/12/05 11:41:56;;;;;;;8.93;1.45;;;;;;;4.39;85.68;101145.34;4952250;28;20130;-88
2021/12/05 11:44:33;;;;;;;7.82;2.05;;;;;;;4.42;85.54;101145.56;4966298;28;20031;-90
2021/12/05 11:47:21;;;;;;;3.83;1.25;;;;;;;4.46;85.44;101135.66;4950828;28;20059;-82
2021/12/05 11:50:08;;;;;;;4.88;1.33;;;;;;;4.51;85.36;101134.75;4958930;28;20053;-85
2021/12/05 11:52:40;;;;;;;9.38;2.95;;;;;;;4.55;85.70;101138.56;4950860;28;20039;-82
2021/12/05 11:55:32;;;;;;;5.05;1.95;;;;;;;4.56;85.71;101141.00;4941692;28;20058;-82
2021/12/05 11:58:01;;;;;;;8.90;2.63;;;;;;;4.58;85.49;101137.97;4950817;28;20079;-84
2021/12/05 12:00:31;;;;;;;9.10;1.33;;;;;;;4.63;85.33;101132.41;4952780;28;20558;-83
2021/12/05 12:03:01;;;;;;;4.25;0.95;;;;;;;4.69;85.37;101142.16;4966528;28;20051;-83
2021/12/05 12:05:34;;;;;;;3.47;0.82;;;;;;;4.74;85.13;101147.56;4932776;28;20066;-83
2021/12/05 12:08:13;;;;;;;4.80;1.60;;;;;;;4.79;84.67;101144.78;4949583;28;20047;-84
2021/12/05 12:11:02;;;;;;;6.07;1.27;;;;;;;4.80;84.72;101149.97;4950619;28;20502;-82
2021/12/05 12:13:49;;;;;;;4.53;1.10;;;;;;;4.86;84.43;101148.78;4959201;28;20043;-82
2021/12/05 12:16:21;;;;;;;6.95;1.48;;;;;;;4.88;84.56;101143.00;4951373;28;20071;-86
2021/12/05 12:19:01;;;;;;;3.80;2.03;;;;;;;4.91;84.57;101142.41;4949762;28;20035;-82
2021/12/05 12:21:42;;;;;;;5.82;1.42;;;;;;;4.92;84.66;101141.28;4966910;28;20054;-84
2021/12/05 12:24:21;;;;;;;5.05;1.63;;;;;;;4.92;84.52;101138.56;4949269;28;20055;-84
2021/12/05 12:27:12;;;;;;;13.18;1.48;;;;;;;4.92;84.65;101141.28;4936619;28;20082;-83
2021/12/05 12:29:50;;;;;;;9.38;1.95;;;;;;;4.94;84.82;101147.28;4936244;28;20047;-82
2021/12/05 12:32:32;;;;;;;6.68;1.45;;;;;;;4.98;84.43;101145.56;4948042;28;20043;-82
2021/12/05 12:35:16;;;;;;;4.38;1.13;;;;;;;5.00;84.64;101135.13;4965351;28;20031;-83
2021/12/05 12:37:52;;;;;;;9.35;1.58;;;;;;;5.08;84.13;101142.69;4930056;28;20042;-83
2021/12/05 12:40:37;;;;;;;10.63;2.35;;;;;;;5.08;83.96;101139.94;4948733;28;20050;-83
2021/12/05 12:43:07;;;;;;;9.93;2.40;;;;;;;5.10;84.15;101148.69;4948958;28;20094;-84
2021/12/05 12:45:41;;;;;;;9.30;2.58;;;;;;;5.11;84.19;101142.06;4948890;28;20062;-84
2021/12/05 12:48:12;;;;;;;8.48;2.25;;;;;;;5.13;84.04;101139.88;4936179;28;20090;-82
2021/12/05 12:50:52;;;;;;;8.32;2.42;;;;;;;5.15;84.00;101143.13;4947620;28;22324;-84
2021/12/05 12:53:37;;;;;;;11.20;3.38;;;;;;;5.17;83.88;101127.16;4951538;28;20118;-83
2021/12/05 12:56:17;;;;;;;10.77;2.83;;;;;;;5.20;84.26;101125.75;4949718;28;20490;-88
2021/12/05 12:58:50;;;;;;;5.20;1.77;;;;;;;5.24;84.01;101122.09;4949416;28;20039;-84
2021/12/05 13:02:25;;;;;;;3.40;1.23;;;;;;;5.28;84.10;101128.63;4949222;28;20053;-83
2021/12/05 13:10:09;;;;;;;6.28;1.95;;;;;;;5.40;83.61;101133.66;4945365;28;20043;-84
2021/12/05 13:12:42;;;;;;;6.20;3.20;;;;;;;5.44;83.41;101137.41;4947230;28;20039;-85
2021/12/05 13:15:17;;;;;;;8.63;2.80;;;;;;;5.49;83.52;101151.88;4957416;28;20051;-83
2021/12/05 13:17:48;;;;;;;4.57;1.45;;;;;;;5.51;83.54;101160.59;4950462;28;20142;-84
2021/12/05 13:20:18;;;;;;;7.40;1.67;;;;;;;5.56;83.23;101156.16;4962730;28;20073;-83
2021/12/05 13:23:01;;;;;;;5.70;1.27;;;;;;;5.60;82.25;101163.47;4955006;28;20121;-83
2021/12/05 13:25:30;;;;;;;7.65;1.60;;;;;;;5.68;83.39;101167.47;4956724;28;20474;-83
2021/12/05 13:27:57;;;;;;;6.57;1.42;;;;;;;5.75;83.00;101176.13;4950055;28;20455;-84
2021/12/05 13:30:32;;;;;;;6.30;1.63;;;;;;;5.81;82.91;101180.41;4950214;28;20172;-88
2021/12/05 13:33:18;;;;;;;9.95;4.25;;;;;;;5.90;82.88;101192.38;4966956;28;20051;-85
2021/12/05 13:35:46;;;;;;;13.75;6.55;;;;;;;5.97;83.01;101187.28;4952495;28;20141;-85
2021/12/05 13:38:34;;;;;;;11.63;4.25;;;;;;;6.02;82.69;101179.75;4947631;28;20506;-82
2021/12/05 13:41:13;;;;;;;16.42;4.10;;;;;;;6.10;82.29;101180.97;4951567;28;20043;-82
2021/12/05 13:43:41;;;;;;;11.80;3.72;;;;;;;6.16;82.51;101178.94;4948526;28;20043;-81
2021/12/05 13:46:30;;;;;;;5.72;1.77;;;;;;;6.19;82.31;101173.66;4949273;28;20043;-82
2021/12/05 13:49:03;;;;;;;10.57;2.20;;;;;;;6.24;82.35;101172.75;4955769;28;20040;-82
2021/12/05 13:51:30;;;;;;;;;;;;;;;6.24;81.53;101170.81;4950383;28;20047;-82
2021/12/05 13:54:01;;;;;;;5.05;1.30;;;;;;;6.25;81.80;101166.91;4949092;28;19922;-83
2021/12/05 13:56:28;;;;;;;7.18;1.45;;;;;;;6.25;81.76;101164.16;4931326;28;20475;-81
2021/12/05 13:59:05;;;;;;;5.03;1.80;;;;;;;6.26;81.63;101163.06;4946685;28;20558;-83
2021/12/05 14:01:34;;;;;;;5.13;2.67;;;;;;;6.27;81.67;101170.19;4930319;28;20207;-82
2021/12/05 14:04:16;;;;;;;5.05;1.90;;;;;;;6.31;81.83;101171.22;4950153;28;20059;-83
2021/12/05 14:06:53;;;;;;;3.47;1.10;;;;;;;6.35;81.28;101177.75;4949948;28;20121;-84
2021/12/05 14:09:27;;;;;;;5.00;1.10;;;;;;;6.34;81.39;101187.09;4950022;28;20357;-83
2021/12/05 14:11:59;;;;;;;5.25;2.08;;;;;;;6.35;81.20;101177.75;4932209;28;20055;-83
2021/12/05 14:14:35;;;;;;;10.25;3.03;;;;;;;6.29;80.92;101184.44;4962169;28;20382;-86
2021/12/05 14:17:09;;;;;;;6.97;2.17;;;;;;;6.25;80.92;101177.91;4932671;28;20054;-82
2021/12/05 14:19:40;;;;;;;10.48;4.82;;;;;;;6.19;80.63;101173.66;4932398;28;20126;-84
2021/12/05 14:22:10;;;;;;;6.47;3.38;;;;;;;6.13;81.00;101159.22;4946157;28;20348;-85
2021/12/05 14:24:44;;;;;;;8.77;4.20;;;;;;;6.09;80.86;101173.84;4946271;28;20055;-84
2021/12/05 14:27:15;;;;;;;7.30;3.72;;;;;;;6.03;80.92;101170.41;4951727;28;20131;-83
2021/12/05 14:29:44;;;;;;;7.80;3.15;;;;;;;5.97;80.89;101176.28;4952704;28;20135;-84
2021/12/05 14:32:22;;;;;;;12.13;2.97;;;;;;;5.93;80.74;101175.28;4940731;28;20050;-83
2021/12/05 14:34:52;;;;;;;7.50;2.60;;;;;;;5.89;80.89;101174.25;4951527;28;20051;-82
2021/12/05 14:37:21;;;;;;;7.35;2.85;;;;;;;5.83;81.06;101180.91;4950651;28;20042;-88
2021/12/05 14:39:59;;;;;;;5.18;2.38;;;;;;;5.76;80.75;101183.25;4936881;28;20050;-83
2021/12/05 14:42:30;;;;;;;8.88;2.92;;;;;;;5.69;81.07;101169.94;4952906;28;20427;-83
2021/12/05 14:45:06;;;;;;;6.05;2.45;;;;;;;5.64;80.97;101178.22;4953650;28;20035;-83
2021/12/05 14:47:36;;;;;;;8.63;2.40;;;;;;;5.60;81.23;101177.22;4952598;28;20121;-83
2021/12/05 14:50:10;;;;;;;12.23;3.60;;;;;;;5.53;80.97;101166.59;4952714;28;20498;-82
2021/12/05 14:52:40;;;;;;;13.60;2.85;;;;;;;5.50;81.11;101175.47;4949244;28;20055;-82
2021/12/05 14:55:10;;;;;;;7.85;2.38;;;;;;;5.47;81.00;101181.56;4952854;28;20501;-82
2021/12/05 14:57:46;;;;;;;7.35;3.42;;;;;;;5.44;80.71;101178.59;4948279;28;20110;-82
2021/12/05 15:00:23;;;;;;;11.88;4.65;;;;;;;5.39;81.02;101187.75;4945427;28;20039;-83
2021/12/05 15:03:11;;;;;;;12.43;4.97;;;;;;;5.35;81.05;101181.19;4949391;28;20051;-83
2021/12/05 15:05:39;;;;;;;11.98;4.00;;;;;;;5.33;81.11;101183.44;4949746;28;20471;-81
2021/12/05 15:08:12;;;;;;;9.93;4.13;;;;;;;5.27;81.17;101184.63;4958852;28;20075;-82
2021/12/05 15:10:41;;;;;;;10.95;3.95;;;;;;;5.25;81.22;101181.38;4950949;28;20479;-84
2021/12/05 15:13:11;;;;;;;11.90;3.47;;;;;;;5.23;81.32;101194.59;4966410;28;20047;-82
2021/12/05 15:15:38;;;;;;;8.68;3.08;;;;;;;5.18;81.04;101191.94;4952441;28;20054;-82
2021/12/05 15:18:14;;;;;;;6.43;2.13;;;;;;;5.14;80.99;101196.34;4955652;28;20097;-82
2021/12/05 15:20:41;;;;;;;4.78;1.45;;;;;;;5.11;81.07;101202.44;4955854;28;20126;-83
2021/12/05 15:23:10;;;;;;;7.45;2.70;;;;;;;5.07;81.29;101201.41;4945444;28;20098;-83
2021/12/05 15:25:40;;;;;;;5.10;2.22;;;;;;;5.05;81.08;101198.16;4934747;28;20051;-83
2021/12/05 15:28:08;;;;;;;9.00;4.07;;;;;;;5.02;80.95;101197.94;4943284;28;20187;-84
2021/12/05 15:30:44;;;;;;;11.68;3.15;;;;;;;4.96;81.04;101204.59;4941240;28;20066;-84
2021/12/05 15:33:19;;;;;;;10.55;2.50;;;;;;;4.88;81.24;101208.84;4960254;28;20047;-84
2021/12/05 15:35:48;;;;;;;4.93;2.47;;;;;;;4.81;81.25;101197.41;4951707;28;20042;-85
2021/12/05 15:38:23;;;;;;;11.60;3.05;;;;;;;4.76;81.48;101205.72;4947182;28;20062;-84
2021/12/05 15:40:53;;;;;;;14.88;4.28;;;;;;;4.74;81.43;101207.91;4949793;28;20154;-84
2021/12/05 15:43:23;;;;;;;21.85;7.63;;;;;;;4.71;81.39;101200.31;4945631;28;20043;-83
2021/12/05 15:45:52;;;;;;;20.83;6.93;;;;;;;4.68;81.56;101209.13;4947777;28;20368;-84
2021/12/05 15:48:39;;;;;;;19.25;7.70;;;;;;;4.64;81.53;101208.06;4948360;28;20043;-84
2021/12/05 15:51:12;;;;;;;12.13;4.60;;;;;;;4.58;81.40;101210.06;4932690;28;20442;-84
2021/12/05 15:53:40;;;;;;;11.48;4.07;;;;;;;4.50;81.40;101212.66;4952193;28;20099;-85
2021/12/05 15:56:11;;;;;;;14.27;5.00;;;;;;;4.40;81.31;101207.28;4935541;28;20047;-84
2021/12/05 15:59:00;;;;;;;11.27;5.47;;;;;;;4.31;81.54;101207.13;4950017;28;20071;-86
2021/12/05 16:01:29;;;;;;;14.13;7.00;;;;;;;4.27;81.81;101208.78;4945817;28;20055;-84
2021/12/05 16:04:02;;;;;;;17.95;7.38;;;;;;;4.24;81.83;101199.25;4965412;28;20058;-85
2021/12/05 16:06:41;;;;;;;20.15;7.78;;;;;;;4.21;81.83;101194.34;4951387;28;20039;-83
2021/12/05 16:09:16;;;;;;;17.48;7.72;;;;;;;4.18;81.87;101194.91;4951031;28;20046;-83
2021/12/05 16:11:44;;;;;;;18.17;9.88;;;;;;;4.16;81.60;101194.41;4950565;28;20042;-84
2021/12/05 16:14:11;;;;;;;18.35;7.70;;;;;;;4.08;82.14;101200.53;4951205;28;20051;-82
2021/12/05 16:16:38;;;;;;;20.52;8.48;;;;;;;4.03;82.36;101192.34;4950364;28;20121;-83
2021/12/05 16:19:10;;;;;;;17.48;8.48;;;;;;;3.98;82.40;101192.41;4949672;28;20047;-82
2021/12/05 16:21:39;;;;;;;23.65;11.70;;;;;;;3.94;82.52;101191.38;4948830;28;20129;-82
2021/12/05 16:24:20;;;;;;;26.75;10.80;;;;;;;3.90;82.65;101192.22;4950495;28;20047;-83
2021/12/05 16:26:49;;;;;;;32.28;13.32;;;;;;;3.89;82.56;101191.41;4947472;28;20039;-82
2021/12/05 16:29:20;;;;;;;26.13;12.32;;;;;;;3.88;82.75;101194.44;4932141;28;20104;-81
2021/12/05 16:31:50;;;;;;;21.60;11.45;;;;;;;3.84;82.59;101193.41;4963707;28;20039;-82
2021/12/05 16:34:27;;;;;;;18.42;10.70;;;;;;;3.85;82.54;101193.09;4965099;28;20050;-82
2021/12/05 16:36:57;;;;;;;27.00;12.57;;;;;;;3.79;82.54;101191.50;4954745;28;20050;-83
2021/12/05 16:39:35;;;;;;;24.63;11.98;;;;;;;3.74;82.35;101202.53;4949502;28;20057;-82
2021/12/05 16:42:08;;;;;;;25.85;13.05;;;;;;;3.65;82.39;101202.31;4948209;28;20047;-83
2021/12/05 16:44:37;;;;;;;25.92;13.23;;;;;;;3.63;82.81;101206.44;4949611;28;20071;-83
2021/12/05 16:47:11;;;;;;;29.85;14.48;;;;;;;3.58;83.10;101198.28;4948476;28;20047;-82
2021/12/05 16:49:41;;;;;;;29.42;13.85;;;;;;;3.55;83.03;101196.13;4949243;28;20039;-83
2021/12/05 16:52:14;;;;;;;31.50;16.30;;;;;;;3.54;83.09;101189.03;4948514;28;20042;-82
2021/12/05 16:55:03;;;;;;;24.13;13.60;;;;;;;3.51;82.93;101181.38;4948802;28;20039;-83
2021/12/05 16:57:43;;;;;;;25.42;12.63;;;;;;;3.48;82.83;101182.78;4947071;28;20040;-83
2021/12/05 17:00:18;;;;;;;24.38;12.65;;;;;;;3.44;82.82;101191.88;4946448;28;20043;-84
2021/12/05 17:02:51;;;;;;;27.02;13.90;;;;;;;3.42;83.08;101186.66;4945390;28;20065;-83
2021/12/05 17:05:23;;;;;;;33.70;15.50;;;;;;;3.42;82.91;101183.09;4946668;28;20050;-83